sensor_id;sensor_type;location;lat;lon;timestamp;P1;durP1;ratioP1;P2;durP2;ratioP2
30036;SDS011;36325;51.512;-0.382;2022-10-17T00:00:53;14.27;;;4.80;;
30036;SDS011;36325;51.512;-0.382;2022-10-17T00:03:21;21.35;;;4.78;;
30036;SDS011;36325;51.512;-0.382;2022-10-17T00:05:48;13.00;;;4.95;;
30036;SDS011;36325;51.512;-0.382;2022-10-17T00:08:16;13.23;;;4.53;;
30036;SDS011;36325;51.512;-0.382;2022-10-17T00:10:44;22.23;;;6.47;;
30036;SDS011;36325;51.512;-0.382;2022-10-17T00:13:20;15.95;;;5.30;;
30036;SDS011;36325;51.512;-0.382;2022-10-17T00:15:47;7.90;;;4.35;;
30036;SDS011;36325;51.512;-0.382;2022-10-17T00:18:14;14.00;;;4.85;;
30036;SDS011;36325;51.512;-0.382;2022-10-17T00:20:42;12.77;;;4.07;;
30036;SDS011;36325;51.512;-0.382;2022-10-17T00:23:09;18.15;;;6.15;;
30036;SDS011;36325;51.512;-0.382;2022-10-17T00:25:36;13.60;;;5.07;;
30036;SDS011;36325;51.512;-0.382;2022-10-17T00:28:03;12.40;;;4.95;;
30036;SDS011;36325;51.512;-0.382;2022-10-17T00:30:30;21.08;;;4.82;;
30036;SDS011;36325;51.512;-0.382;2022-10-17T00:32:58;18.83;;;5.05;;
30036;SDS011;36325;51.512;-0.382;2022-10-17T00:35:25;18.50;;;4.30;;
30036;SDS011;36325;51.512;-0.382;2022-10-17T00:37:52;9.30;;;3.70;;
30036;SDS011;36325;51.512;-0.382;2022-10-17T00:40:20;20.65;;;4.18;;
30036;SDS011;36325;51.512;-0.382;2022-10-17T00:42:47;16.27;;;4.18;;
30036;SDS011;36325;51.512;-0.382;2022-10-17T00:45:22;19.02;;;4.85;;
30036;SDS011;36325;51.512;-0.382;2022-10-17T00:48:00;13.55;;;4.40;;
30036;SDS011;36325;51.512;-0.382;2022-10-17T00:50:30;17.05;;;3.80;;
30036;SDS011;36325;51.512;-0.382;2022-10-17T00:52:59;14.45;;;3.78;;
30036;SDS011;36325;51.512;-0.382;2022-10-17T00:55:30;7.22;;;3.08;;
30036;SDS011;36325;51.512;-0.382;2022-10-17T00:57:59;14.32;;;3.83;;
30036;SDS011;36325;51.512;-0.382;2022-10-17T01:00:29;15.77;;;4.03;;
30036;SDS011;36325;51.512;-0.382;2022-10-17T01:02:57;13.50;;;3.90;;
30036;SDS011;36325;51.512;-0.382;2022-10-17T01:05:24;8.68;;;3.80;;
30036;SDS011;36325;51.512;-0.382;2022-10-17T01:07:51;13.80;;;4.40;;
30036;SDS011;36325;51.512;-0.382;2022-10-17T01:10:19;9.77;;;3.67;;
30036;SDS011;36325;51.512;-0.382;2022-10-17T01:12:51;13.55;;;3.85;;
30036;SDS011;36325;51.512;-0.382;2022-10-17T01:18:29;11.90;;;3.00;;
30036;SDS011;36325;51.512;-0.382;2022-10-17T01:21:25;10.88;;;3.35;;
30036;SDS011;36325;51.512;-0.382;2022-10-17T01:35:08;9.63;;;3.55;;
30036;SDS011;36325;51.512;-0.382;2022-10-17T01:43:12;7.30;;;2.45;;
30036;SDS011;36325;51.512;-0.382;2022-10-17T01:48:21;8.30;;;2.85;;
30036;SDS011;36325;51.512;-0.382;2022-10-17T01:50:52;11.70;;;2.88;;
30036;SDS011;36325;51.512;-0.382;2022-10-17T01:53:28;6.75;;;2.50;;
30036;SDS011;36325;51.512;-0.382;2022-10-17T01:56:03;6.78;;;2.08;;
30036;SDS011;36325;51.512;-0.382;2022-10-17T01:58:39;16.73;;;3.23;;
30036;SDS011;36325;51.512;-0.382;2022-10-17T02:01:19;16.25;;;3.00;;
30036;SDS011;36325;51.512;-0.382;2022-10-17T02:03:47;10.93;;;3.03;;
30036;SDS011;36325;51.512;-0.382;2022-10-17T02:06:17;7.82;;;2.17;;
30036;SDS011;36325;51.512;-0.382;2022-10-17T02:08:46;8.40;;;2.40;;
30036;SDS011;36325;51.512;-0.382;2022-10-17T02:11:21;10.02;;;2.17;;
30036;SDS011;36325;51.512;-0.382;2022-10-17T02:19:47;14.70;;;3.00;;
30036;SDS011;36325;51.512;-0.382;2022-10-17T02:22:36;6.80;;;2.60;;
30036;SDS011;36325;51.512;-0.382;2022-10-17T02:27:58;13.68;;;2.28;;
30036;SDS011;36325;51.512;-0.382;2022-10-17T02:33:05;14.65;;;3.20;;
30036;SDS011;36325;51.512;-0.382;2022-10-17T02:35:39;13.38;;;2.80;;
30036;SDS011;36325;51.512;-0.382;2022-10-17T02:38:12;11.32;;;2.60;;
30036;SDS011;36325;51.512;-0.382;2022-10-17T02:40:41;20.60;;;3.03;;
30036;SDS011;36325;51.512;-0.382;2022-10-17T02:43:11;9.18;;;2.65;;
30036;SDS011;36325;51.512;-0.382;2022-10-17T02:45:39;16.52;;;2.45;;
30036;SDS011;36325;51.512;-0.382;2022-10-17T02:56:13;12.15;;;2.88;;
30036;SDS011;36325;51.512;-0.382;2022-10-17T02:58:45;13.18;;;2.78;;
30036;SDS011;36325;51.512;-0.382;2022-10-17T03:01:19;12.20;;;3.08;;
30036;SDS011;36325;51.512;-0.382;2022-10-17T03:03:48;14.70;;;2.55;;
30036;SDS011;36325;51.512;-0.382;2022-10-17T03:06:15;14.90;;;2.47;;
30036;SDS011;36325;51.512;-0.382;2022-10-17T03:08:44;15.13;;;2.72;;
30036;SDS011;36325;51.512;-0.382;2022-10-17T03:11:11;20.55;;;2.90;;
30036;SDS011;36325;51.512;-0.382;2022-10-17T03:13:38;16.00;;;2.63;;
30036;SDS011;36325;51.512;-0.382;2022-10-17T03:16:05;13.55;;;2.92;;
30036;SDS011;36325;51.512;-0.382;2022-10-17T03:18:33;14.52;;;2.30;;
30036;SDS011;36325;51.512;-0.382;2022-10-17T03:21:02;11.15;;;2.35;;
30036;SDS011;36325;51.512;-0.382;2022-10-17T03:23:29;12.63;;;2.63;;
30036;SDS011;36325;51.512;-0.382;2022-10-17T03:25:57;15.77;;;2.20;;
30036;SDS011;36325;51.512;-0.382;2022-10-17T03:28:33;12.13;;;2.58;;
30036;SDS011;36325;51.512;-0.382;2022-10-17T03:31:10;15.57;;;2.72;;
30036;SDS011;36325;51.512;-0.382;2022-10-17T03:33:40;18.27;;;3.13;;
30036;SDS011;36325;51.512;-0.382;2022-10-17T03:36:08;17.73;;;3.63;;
30036;SDS011;36325;51.512;-0.382;2022-10-17T03:38:38;11.98;;;2.90;;
30036;SDS011;36325;51.512;-0.382;2022-10-17T03:41:06;15.52;;;3.47;;
30036;SDS011;36325;51.512;-0.382;2022-10-17T03:43:35;13.50;;;3.22;;
30036;SDS011;36325;51.512;-0.382;2022-10-17T03:46:02;15.68;;;2.70;;
30036;SDS011;36325;51.512;-0.382;2022-10-17T03:48:31;15.75;;;2.90;;
30036;SDS011;36325;51.512;-0.382;2022-10-17T03:50:59;13.77;;;2.55;;
30036;SDS011;36325;51.512;-0.382;2022-10-17T03:53:30;15.23;;;3.05;;
30036;SDS011;36325;51.512;-0.382;2022-10-17T03:56:18;13.45;;;2.80;;
30036;SDS011;36325;51.512;-0.382;2022-10-17T03:58:55;16.05;;;3.03;;
30036;SDS011;36325;51.512;-0.382;2022-10-17T04:01:22;12.63;;;2.83;;
30036;SDS011;36325;51.512;-0.382;2022-10-17T04:03:50;12.27;;;3.72;;
30036;SDS011;36325;51.512;-0.382;2022-10-17T04:06:19;18.58;;;3.88;;
30036;SDS011;36325;51.512;-0.382;2022-10-17T04:08:47;9.63;;;3.08;;
30036;SDS011;36325;51.512;-0.382;2022-10-17T04:11:20;24.35;;;3.25;;
30036;SDS011;36325;51.512;-0.382;2022-10-17T04:13:52;13.25;;;3.22;;
30036;SDS011;36325;51.512;-0.382;2022-10-17T04:16:28;19.70;;;2.90;;
30036;SDS011;36325;51.512;-0.382;2022-10-17T04:19:09;11.07;;;2.97;;
30036;SDS011;36325;51.512;-0.382;2022-10-17T04:21:46;16.58;;;3.92;;
30036;SDS011;36325;51.512;-0.382;2022-10-17T04:24:14;16.45;;;2.90;;
30036;SDS011;36325;51.512;-0.382;2022-10-17T04:26:52;21.95;;;3.20;;
30036;SDS011;36325;51.512;-0.382;2022-10-17T04:29:23;15.00;;;2.95;;
30036;SDS011;36325;51.512;-0.382;2022-10-17T04:31:57;18.05;;;3.65;;
30036;SDS011;36325;51.512;-0.382;2022-10-17T04:34:33;14.35;;;2.97;;
30036;SDS011;36325;51.512;-0.382;2022-10-17T04:37:01;15.50;;;2.63;;
30036;SDS011;36325;51.512;-0.382;2022-10-17T04:39:28;16.95;;;2.42;;
30036;SDS011;36325;51.512;-0.382;2022-10-17T04:41:56;12.55;;;2.65;;
30036;SDS011;36325;51.512;-0.382;2022-10-17T04:44:23;12.50;;;3.03;;
30036;SDS011;36325;51.512;-0.382;2022-10-17T04:46:51;15.18;;;2.72;;
30036;SDS011;36325;51.512;-0.382;2022-10-17T04:49:18;15.07;;;2.40;;
30036;SDS011;36325;51.512;-0.382;2022-10-17T04:51:50;18.25;;;2.92;;
30036;SDS011;36325;51.512;-0.382;2022-10-17T04:54:22;13.93;;;2.72;;
30036;SDS011;36325;51.512;-0.382;2022-10-17T04:56:56;10.75;;;2.20;;
30036;SDS011;36325;51.512;-0.382;2022-10-17T04:59:24;15.02;;;2.60;;
30036;SDS011;36325;51.512;-0.382;2022-10-17T05:02:03;11.82;;;2.17;;
30036;SDS011;36325;51.512;-0.382;2022-10-17T05:04:31;9.20;;;2.28;;
30036;SDS011;36325;51.512;-0.382;2022-10-17T05:06:59;13.70;;;2.17;;
30036;SDS011;36325;51.512;-0.382;2022-10-17T05:09:44;15.65;;;2.53;;
30036;SDS011;36325;51.512;-0.382;2022-10-17T05:12:11;13.07;;;2.97;;
30036;SDS011;36325;51.512;-0.382;2022-10-17T05:14:43;14.98;;;2.22;;
30036;SDS011;36325;51.512;-0.382;2022-10-17T05:17:10;29.00;;;2.67;;
30036;SDS011;36325;51.512;-0.382;2022-10-17T05:19:37;16.77;;;3.63;;
30036;SDS011;36325;51.512;-0.382;2022-10-17T05:22:06;20.30;;;4.38;;
30036;SDS011;36325;51.512;-0.382;2022-10-17T05:24:34;15.77;;;2.60;;
30036;SDS011;36325;51.512;-0.382;2022-10-17T05:27:01;18.58;;;2.75;;
30036;SDS011;36325;51.512;-0.382;2022-10-17T05:29:29;16.15;;;2.30;;
30036;SDS011;36325;51.512;-0.382;2022-10-17T05:32:05;13.23;;;2.85;;
30036;SDS011;36325;51.512;-0.382;2022-10-17T05:34:33;16.33;;;2.40;;
30036;SDS011;36325;51.512;-0.382;2022-10-17T05:37:00;19.00;;;2.42;;
30036;SDS011;36325;51.512;-0.382;2022-10-17T05:39:28;21.05;;;3.08;;
30036;SDS011;36325;51.512;-0.382;2022-10-17T05:41:56;10.13;;;2.55;;
30036;SDS011;36325;51.512;-0.382;2022-10-17T05:44:23;12.52;;;2.05;;
30036;SDS011;36325;51.512;-0.382;2022-10-17T05:46:57;18.65;;;2.78;;
30036;SDS011;36325;51.512;-0.382;2022-10-17T05:49:26;15.88;;;3.10;;
30036;SDS011;36325;51.512;-0.382;2022-10-17T05:52:12;12.48;;;2.05;;
30036;SDS011;36325;51.512;-0.382;2022-10-17T05:54:59;12.93;;;2.47;;
30036;SDS011;36325;51.512;-0.382;2022-10-17T05:57:27;14.32;;;1.90;;
30036;SDS011;36325;51.512;-0.382;2022-10-17T05:59:55;15.65;;;2.78;;
30036;SDS011;36325;51.512;-0.382;2022-10-17T06:02:23;11.05;;;1.88;;
30036;SDS011;36325;51.512;-0.382;2022-10-17T06:04:50;11.70;;;1.85;;
30036;SDS011;36325;51.512;-0.382;2022-10-17T06:07:19;19.83;;;2.83;;
30036;SDS011;36325;51.512;-0.382;2022-10-17T06:09:47;16.17;;;2.35;;
30036;SDS011;36325;51.512;-0.382;2022-10-17T06:12:14;16.33;;;3.38;;
30036;SDS011;36325;51.512;-0.382;2022-10-17T06:14:43;12.75;;;2.42;;
30036;SDS011;36325;51.512;-0.382;2022-10-17T06:17:12;13.00;;;2.25;;
30036;SDS011;36325;51.512;-0.382;2022-10-17T06:19:42;26.48;;;3.97;;
30036;SDS011;36325;51.512;-0.382;2022-10-17T06:22:15;14.88;;;2.15;;
30036;SDS011;36325;51.512;-0.382;2022-10-17T06:24:42;14.55;;;2.15;;
30036;SDS011;36325;51.512;-0.382;2022-10-17T06:27:11;12.75;;;2.05;;
30036;SDS011;36325;51.512;-0.382;2022-10-17T06:29:39;17.60;;;2.33;;
30036;SDS011;36325;51.512;-0.382;2022-10-17T06:32:07;16.17;;;3.00;;
30036;SDS011;36325;51.512;-0.382;2022-10-17T06:34:37;13.60;;;2.15;;
30036;SDS011;36325;51.512;-0.382;2022-10-17T06:37:05;13.48;;;2.00;;
30036;SDS011;36325;51.512;-0.382;2022-10-17T06:39:37;17.50;;;2.30;;
30036;SDS011;36325;51.512;-0.382;2022-10-17T06:42:09;12.85;;;2.42;;
30036;SDS011;36325;51.512;-0.382;2022-10-17T06:45:13;12.30;;;2.00;;
30036;SDS011;36325;51.512;-0.382;2022-10-17T06:47:53;15.15;;;2.70;;
30036;SDS011;36325;51.512;-0.382;2022-10-17T06:50:41;13.30;;;2.30;;
30036;SDS011;36325;51.512;-0.382;2022-10-17T06:53:15;10.15;;;2.30;;
30036;SDS011;36325;51.512;-0.382;2022-10-17T06:56:02;10.77;;;2.10;;
30036;SDS011;36325;51.512;-0.382;2022-10-17T06:58:49;15.27;;;2.38;;
30036;SDS011;36325;51.512;-0.382;2022-10-17T07:01:26;17.05;;;2.35;;
30036;SDS011;36325;51.512;-0.382;2022-10-17T07:04:04;12.48;;;1.70;;
30036;SDS011;36325;51.512;-0.382;2022-10-17T07:06:32;27.55;;;3.20;;
30036;SDS011;36325;51.512;-0.382;2022-10-17T07:09:08;14.55;;;2.40;;
30036;SDS011;36325;51.512;-0.382;2022-10-17T07:11:35;16.55;;;2.10;;
30036;SDS011;36325;51.512;-0.382;2022-10-17T07:14:03;11.68;;;1.92;;
30036;SDS011;36325;51.512;-0.382;2022-10-17T07:16:30;19.13;;;2.92;;
30036;SDS011;36325;51.512;-0.382;2022-10-17T07:19:04;10.25;;;2.00;;
30036;SDS011;36325;51.512;-0.382;2022-10-17T07:21:35;8.98;;;2.10;;
30036;SDS011;36325;51.512;-0.382;2022-10-17T07:24:04;9.00;;;1.70;;
30036;SDS011;36325;51.512;-0.382;2022-10-17T07:26:33;13.57;;;2.20;;
30036;SDS011;36325;51.512;-0.382;2022-10-17T07:29:00;13.43;;;2.53;;
30036;SDS011;36325;51.512;-0.382;2022-10-17T07:31:41;12.40;;;2.22;;
30036;SDS011;36325;51.512;-0.382;2022-10-17T07:34:11;12.40;;;1.83;;
30036;SDS011;36325;51.512;-0.382;2022-10-17T07:36:39;16.73;;;2.92;;
30036;SDS011;36325;51.512;-0.382;2022-10-17T07:39:07;10.15;;;2.05;;
30036;SDS011;36325;51.512;-0.382;2022-10-17T07:41:36;10.25;;;1.90;;
30036;SDS011;36325;51.512;-0.382;2022-10-17T07:44:04;15.20;;;2.67;;
30036;SDS011;36325;51.512;-0.382;2022-10-17T07:46:40;15.57;;;2.28;;
30036;SDS011;36325;51.512;-0.382;2022-10-17T07:49:09;11.55;;;1.45;;
30036;SDS011;36325;51.512;-0.382;2022-10-17T07:51:36;6.43;;;1.90;;
30036;SDS011;36325;51.512;-0.382;2022-10-17T07:54:04;18.67;;;2.25;;
30036;SDS011;36325;51.512;-0.382;2022-10-17T07:56:31;12.25;;;2.42;;
30036;SDS011;36325;51.512;-0.382;2022-10-17T07:58:59;14.93;;;2.40;;
30036;SDS011;36325;51.512;-0.382;2022-10-17T08:01:27;19.58;;;3.63;;
30036;SDS011;36325;51.512;-0.382;2022-10-17T08:03:55;16.33;;;2.95;;
30036;SDS011;36325;51.512;-0.382;2022-10-17T08:06:22;17.08;;;2.70;;
30036;SDS011;36325;51.512;-0.382;2022-10-17T08:08:49;21.40;;;3.20;;
30036;SDS011;36325;51.512;-0.382;2022-10-17T08:11:17;17.75;;;3.90;;
30036;SDS011;36325;51.512;-0.382;2022-10-17T08:13:55;12.85;;;2.15;;
30036;SDS011;36325;51.512;-0.382;2022-10-17T08:16:23;19.25;;;3.88;;
30036;SDS011;36325;51.512;-0.382;2022-10-17T08:18:50;16.33;;;1.90;;
30036;SDS011;36325;51.512;-0.382;2022-10-17T08:21:19;13.02;;;2.30;;
30036;SDS011;36325;51.512;-0.382;2022-10-17T08:23:46;17.02;;;3.00;;
30036;SDS011;36325;51.512;-0.382;2022-10-17T08:26:13;19.20;;;1.83;;
30036;SDS011;36325;51.512;-0.382;2022-10-17T08:28:42;12.30;;;2.58;;
30036;SDS011;36325;51.512;-0.382;2022-10-17T08:31:14;14.02;;;2.75;;
30036;SDS011;36325;51.512;-0.382;2022-10-17T08:33:46;17.90;;;2.55;;
30036;SDS011;36325;51.512;-0.382;2022-10-17T08:36:14;12.57;;;2.58;;
30036;SDS011;36325;51.512;-0.382;2022-10-17T08:38:43;13.57;;;1.88;;
30036;SDS011;36325;51.512;-0.382;2022-10-17T08:44:32;20.58;;;2.78;;
30036;SDS011;36325;51.512;-0.382;2022-10-17T08:47:12;14.45;;;1.98;;
30036;SDS011;36325;51.512;-0.382;2022-10-17T08:49:53;13.43;;;2.45;;
30036;SDS011;36325;51.512;-0.382;2022-10-17T08:55:46;17.45;;;2.50;;
30036;SDS011;36325;51.512;-0.382;2022-10-17T09:03:37;15.13;;;2.20;;
30036;SDS011;36325;51.512;-0.382;2022-10-17T09:06:47;13.70;;;3.00;;
30036;SDS011;36325;51.512;-0.382;2022-10-17T09:12:04;19.50;;;2.65;;
30036;SDS011;36325;51.512;-0.382;2022-10-17T09:22:49;28.42;;;3.47;;
30036;SDS011;36325;51.512;-0.382;2022-10-17T09:25:31;17.83;;;1.98;;
30036;SDS011;36325;51.512;-0.382;2022-10-17T09:30:58;20.17;;;3.13;;
30036;SDS011;36325;51.512;-0.382;2022-10-17T09:33:45;15.32;;;2.28;;
30036;SDS011;36325;51.512;-0.382;2022-10-17T09:36:31;20.83;;;3.15;;
30036;SDS011;36325;51.512;-0.382;2022-10-17T09:39:04;13.55;;;2.63;;
30036;SDS011;36325;51.512;-0.382;2022-10-17T09:41:38;16.23;;;3.17;;
30036;SDS011;36325;51.512;-0.382;2022-10-17T09:44:21;32.60;;;5.68;;
30036;SDS011;36325;51.512;-0.382;2022-10-17T09:49:30;24.67;;;3.85;;
30036;SDS011;36325;51.512;-0.382;2022-10-17T09:52:04;19.27;;;3.78;;
30036;SDS011;36325;51.512;-0.382;2022-10-17T09:54:42;17.88;;;3.05;;
30036;SDS011;36325;51.512;-0.382;2022-10-17T09:57:15;12.68;;;2.72;;
30036;SDS011;36325;51.512;-0.382;2022-10-17T10:02:41;17.30;;;2.65;;
30036;SDS011;36325;51.512;-0.382;2022-10-17T10:05:15;17.45;;;3.35;;
30036;SDS011;36325;51.512;-0.382;2022-10-17T10:07:59;26.02;;;3.80;;
30036;SDS011;36325;51.512;-0.382;2022-10-17T10:10:29;22.48;;;3.42;;
30036;SDS011;36325;51.512;-0.382;2022-10-17T10:13:06;18.45;;;2.42;;
30036;SDS011;36325;51.512;-0.382;2022-10-17T10:15:47;24.50;;;3.72;;
30036;SDS011;36325;51.512;-0.382;2022-10-17T10:21:05;18.35;;;2.78;;
30036;SDS011;36325;51.512;-0.382;2022-10-17T10:23:33;21.73;;;3.10;;
30036;SDS011;36325;51.512;-0.382;2022-10-17T10:28:51;16.50;;;2.72;;
30036;SDS011;36325;51.512;-0.382;2022-10-17T10:31:29;21.15;;;2.63;;
30036;SDS011;36325;51.512;-0.382;2022-10-17T10:36:44;26.15;;;3.65;;
30036;SDS011;36325;51.512;-0.382;2022-10-17T10:39:46;31.17;;;3.90;;
30036;SDS011;36325;51.512;-0.382;2022-10-17T10:42:21;15.23;;;3.53;;
30036;SDS011;36325;51.512;-0.382;2022-10-17T10:45:14;18.07;;;3.03;;
30036;SDS011;36325;51.512;-0.382;2022-10-17T10:50:48;24.75;;;2.78;;
30036;SDS011;36325;51.512;-0.382;2022-10-17T10:53:33;16.63;;;2.58;;
30036;SDS011;36325;51.512;-0.382;2022-10-17T10:56:23;26.92;;;3.33;;
30036;SDS011;36325;51.512;-0.382;2022-10-17T11:04:18;24.30;;;2.65;;
30036;SDS011;36325;51.512;-0.382;2022-10-17T11:06:48;29.63;;;4.72;;
30036;SDS011;36325;51.512;-0.382;2022-10-17T11:09:23;41.15;;;5.10;;
30036;SDS011;36325;51.512;-0.382;2022-10-17T11:11:56;23.27;;;4.28;;
30036;SDS011;36325;51.512;-0.382;2022-10-17T11:17:47;49.42;;;5.05;;
30036;SDS011;36325;51.512;-0.382;2022-10-17T11:25:37;31.20;;;4.28;;
30036;SDS011;36325;51.512;-0.382;2022-10-17T11:28:13;26.02;;;4.00;;
30036;SDS011;36325;51.512;-0.382;2022-10-17T11:30:54;20.85;;;3.50;;
30036;SDS011;36325;51.512;-0.382;2022-10-17T11:36:14;8.88;;;1.83;;
30036;SDS011;36325;51.512;-0.382;2022-10-17T11:38:49;24.77;;;4.82;;
30036;SDS011;36325;51.512;-0.382;2022-10-17T11:41:26;23.35;;;3.35;;
30036;SDS011;36325;51.512;-0.382;2022-10-17T11:46:50;22.95;;;3.22;;
30036;SDS011;36325;51.512;-0.382;2022-10-17T11:49:24;33.60;;;3.85;;
30036;SDS011;36325;51.512;-0.382;2022-10-17T11:52:22;34.58;;;4.72;;
30036;SDS011;36325;51.512;-0.382;2022-10-17T11:55:22;29.48;;;4.65;;
30036;SDS011;36325;51.512;-0.382;2022-10-17T11:57:58;30.80;;;4.65;;
30036;SDS011;36325;51.512;-0.382;2022-10-17T12:09:55;20.88;;;3.17;;
30036;SDS011;36325;51.512;-0.382;2022-10-17T12:12:41;16.67;;;2.30;;
30036;SDS011;36325;51.512;-0.382;2022-10-17T12:17:45;14.00;;;2.03;;
30036;SDS011;36325;51.512;-0.382;2022-10-17T12:20:28;24.75;;;3.17;;
30036;SDS011;36325;51.512;-0.382;2022-10-17T12:25:47;15.98;;;3.13;;
30036;SDS011;36325;51.512;-0.382;2022-10-17T12:28:51;13.93;;;2.35;;
30036;SDS011;36325;51.512;-0.382;2022-10-17T12:33:58;12.90;;;2.15;;
30036;SDS011;36325;51.512;-0.382;2022-10-17T13:02:53;13.52;;;2.05;;
30036;SDS011;36325;51.512;-0.382;2022-10-17T13:05:28;9.48;;;1.98;;
30036;SDS011;36325;51.512;-0.382;2022-10-17T13:07:58;9.10;;;1.70;;
30036;SDS011;36325;51.512;-0.382;2022-10-17T13:10:28;10.70;;;1.80;;
30036;SDS011;36325;51.512;-0.382;2022-10-17T13:13:34;9.18;;;2.10;;
30036;SDS011;36325;51.512;-0.382;2022-10-17T13:15:59;10.05;;;1.83;;
30036;SDS011;36325;51.512;-0.382;2022-10-17T13:18:27;10.27;;;2.33;;
30036;SDS011;36325;51.512;-0.382;2022-10-17T13:20:56;11.65;;;2.20;;
30036;SDS011;36325;51.512;-0.382;2022-10-17T13:23:36;7.25;;;2.10;;
30036;SDS011;36325;51.512;-0.382;2022-10-17T13:28:42;9.23;;;1.30;;
30036;SDS011;36325;51.512;-0.382;2022-10-17T13:31:25;10.20;;;1.90;;
30036;SDS011;36325;51.512;-0.382;2022-10-17T13:33:56;13.45;;;2.60;;
30036;SDS011;36325;51.512;-0.382;2022-10-17T13:36:25;6.75;;;1.88;;
30036;SDS011;36325;51.512;-0.382;2022-10-17T13:38:54;13.20;;;2.13;;
30036;SDS011;36325;51.512;-0.382;2022-10-17T13:41:27;7.88;;;1.55;;
30036;SDS011;36325;51.512;-0.382;2022-10-17T13:44:02;11.90;;;1.92;;
30036;SDS011;36325;51.512;-0.382;2022-10-17T13:46:35;9.80;;;1.23;;
30036;SDS011;36325;51.512;-0.382;2022-10-17T13:49:14;6.55;;;1.45;;
30036;SDS011;36325;51.512;-0.382;2022-10-17T13:51:43;7.63;;;1.55;;
30036;SDS011;36325;51.512;-0.382;2022-10-17T13:54:46;6.43;;;1.90;;
30036;SDS011;36325;51.512;-0.382;2022-10-17T13:57:17;11.48;;;1.92;;
30036;SDS011;36325;51.512;-0.382;2022-10-17T13:59:49;11.07;;;2.00;;
30036;SDS011;36325;51.512;-0.382;2022-10-17T14:05:12;9.60;;;2.08;;
30036;SDS011;36325;51.512;-0.382;2022-10-17T14:07:45;9.95;;;1.80;;
30036;SDS011;36325;51.512;-0.382;2022-10-17T14:10:39;14.65;;;2.03;;
30036;SDS011;36325;51.512;-0.382;2022-10-17T14:13:21;11.65;;;1.50;;
30036;SDS011;36325;51.512;-0.382;2022-10-17T14:15:54;10.43;;;1.83;;
30036;SDS011;36325;51.512;-0.382;2022-10-17T14:18:26;6.10;;;1.83;;
30036;SDS011;36325;51.512;-0.382;2022-10-17T14:21:00;16.90;;;1.98;;
30036;SDS011;36325;51.512;-0.382;2022-10-17T14:23:48;9.70;;;2.33;;
30036;SDS011;36325;51.512;-0.382;2022-10-17T14:26:20;8.93;;;1.92;;
30036;SDS011;36325;51.512;-0.382;2022-10-17T14:29:03;7.78;;;1.90;;
30036;SDS011;36325;51.512;-0.382;2022-10-17T14:31:32;9.77;;;1.90;;
30036;SDS011;36325;51.512;-0.382;2022-10-17T14:34:03;11.40;;;1.63;;
30036;SDS011;36325;51.512;-0.382;2022-10-17T14:36:35;8.00;;;1.90;;
30036;SDS011;36325;51.512;-0.382;2022-10-17T14:39:06;11.85;;;1.88;;
30036;SDS011;36325;51.512;-0.382;2022-10-17T14:41:42;10.73;;;2.33;;
30036;SDS011;36325;51.512;-0.382;2022-10-17T14:44:21;10.15;;;2.13;;
30036;SDS011;36325;51.512;-0.382;2022-10-17T14:46:56;12.32;;;1.75;;
30036;SDS011;36325;51.512;-0.382;2022-10-17T14:49:49;3.97;;;1.20;;
30036;SDS011;36325;51.512;-0.382;2022-10-17T14:52:28;12.90;;;2.38;;
30036;SDS011;36325;51.512;-0.382;2022-10-17T14:55:22;9.25;;;2.25;;
30036;SDS011;36325;51.512;-0.382;2022-10-17T14:57:51;11.70;;;2.03;;
30036;SDS011;36325;51.512;-0.382;2022-10-17T15:00:19;8.02;;;1.40;;
30036;SDS011;36325;51.512;-0.382;2022-10-17T15:02:48;8.95;;;1.98;;
30036;SDS011;36325;51.512;-0.382;2022-10-17T15:05:19;8.88;;;1.52;;
30036;SDS011;36325;51.512;-0.382;2022-10-17T15:07:49;9.27;;;1.80;;
30036;SDS011;36325;51.512;-0.382;2022-10-17T15:12:59;13.25;;;2.63;;
30036;SDS011;36325;51.512;-0.382;2022-10-17T15:15:47;7.72;;;1.58;;
30036;SDS011;36325;51.512;-0.382;2022-10-17T15:18:17;12.00;;;1.77;;
30036;SDS011;36325;51.512;-0.382;2022-10-17T15:20:45;8.77;;;1.92;;
30036;SDS011;36325;51.512;-0.382;2022-10-17T15:23:12;7.38;;;2.03;;
30036;SDS011;36325;51.512;-0.382;2022-10-17T15:25:39;6.03;;;1.40;;
30036;SDS011;36325;51.512;-0.382;2022-10-17T15:28:07;12.00;;;2.05;;
30036;SDS011;36325;51.512;-0.382;2022-10-17T15:30:37;12.02;;;2.20;;
30036;SDS011;36325;51.512;-0.382;2022-10-17T15:33:04;8.93;;;1.95;;
30036;SDS011;36325;51.512;-0.382;2022-10-17T15:35:31;8.95;;;1.83;;
30036;SDS011;36325;51.512;-0.382;2022-10-17T15:37:58;5.82;;;1.73;;
30036;SDS011;36325;51.512;-0.382;2022-10-17T15:40:27;9.00;;;1.83;;
30036;SDS011;36325;51.512;-0.382;2022-10-17T15:42:55;7.53;;;1.38;;
30036;SDS011;36325;51.512;-0.382;2022-10-17T15:45:22;13.40;;;2.40;;
30036;SDS011;36325;51.512;-0.382;2022-10-17T15:47:51;7.65;;;2.00;;
30036;SDS011;36325;51.512;-0.382;2022-10-17T15:50:22;11.13;;;2.13;;
30036;SDS011;36325;51.512;-0.382;2022-10-17T15:52:49;8.23;;;2.03;;
30036;SDS011;36325;51.512;-0.382;2022-10-17T15:55:18;14.77;;;2.10;;
30036;SDS011;36325;51.512;-0.382;2022-10-17T15:57:45;11.10;;;2.17;;
30036;SDS011;36325;51.512;-0.382;2022-10-17T16:00:15;8.45;;;2.10;;
30036;SDS011;36325;51.512;-0.382;2022-10-17T16:02:45;9.88;;;1.95;;
30036;SDS011;36325;51.512;-0.382;2022-10-17T16:05:20;11.43;;;2.15;;
30036;SDS011;36325;51.512;-0.382;2022-10-17T16:07:52;7.25;;;1.60;;
30036;SDS011;36325;51.512;-0.382;2022-10-17T16:10:19;7.18;;;1.63;;
30036;SDS011;36325;51.512;-0.382;2022-10-17T16:12:48;12.07;;;2.00;;
30036;SDS011;36325;51.512;-0.382;2022-10-17T16:15:20;21.02;;;2.38;;
30036;SDS011;36325;51.512;-0.382;2022-10-17T16:17:50;8.90;;;2.30;;
30036;SDS011;36325;51.512;-0.382;2022-10-17T16:20:18;9.95;;;1.80;;
30036;SDS011;36325;51.512;-0.382;2022-10-17T16:22:46;13.38;;;2.00;;
30036;SDS011;36325;51.512;-0.382;2022-10-17T16:25:24;10.13;;;2.17;;
30036;SDS011;36325;51.512;-0.382;2022-10-17T16:27:54;7.60;;;1.83;;
30036;SDS011;36325;51.512;-0.382;2022-10-17T16:30:23;11.93;;;1.77;;
30036;SDS011;36325;51.512;-0.382;2022-10-17T16:32:52;11.50;;;2.20;;
30036;SDS011;36325;51.512;-0.382;2022-10-17T16:35:24;12.23;;;2.25;;
30036;SDS011;36325;51.512;-0.382;2022-10-17T16:37:57;8.20;;;2.13;;
30036;SDS011;36325;51.512;-0.382;2022-10-17T16:40:24;11.05;;;2.05;;
30036;SDS011;36325;51.512;-0.382;2022-10-17T16:42:51;9.73;;;1.80;;
30036;SDS011;36325;51.512;-0.382;2022-10-17T16:45:20;8.32;;;1.83;;
30036;SDS011;36325;51.512;-0.382;2022-10-17T16:47:48;17.70;;;2.45;;
30036;SDS011;36325;51.512;-0.382;2022-10-17T16:50:16;7.57;;;1.67;;
30036;SDS011;36325;51.512;-0.382;2022-10-17T16:52:44;11.07;;;2.03;;
30036;SDS011;36325;51.512;-0.382;2022-10-17T16:55:11;13.13;;;2.08;;
30036;SDS011;36325;51.512;-0.382;2022-10-17T16:57:41;8.95;;;1.70;;
30036;SDS011;36325;51.512;-0.382;2022-10-17T17:00:10;11.57;;;2.25;;
30036;SDS011;36325;51.512;-0.382;2022-10-17T17:02:38;20.67;;;2.03;;
30036;SDS011;36325;51.512;-0.382;2022-10-17T17:05:05;17.42;;;2.63;;
30036;SDS011;36325;51.512;-0.382;2022-10-17T17:07:33;11.88;;;1.83;;
30036;SDS011;36325;51.512;-0.382;2022-10-17T17:10:01;17.77;;;2.42;;
30036;SDS011;36325;51.512;-0.382;2022-10-17T17:12:30;12.05;;;2.25;;
30036;SDS011;36325;51.512;-0.382;2022-10-17T17:14:58;11.07;;;2.03;;
30036;SDS011;36325;51.512;-0.382;2022-10-17T17:17:25;13.57;;;2.53;;
30036;SDS011;36325;51.512;-0.382;2022-10-17T17:20:10;7.88;;;2.30;;
30036;SDS011;36325;51.512;-0.382;2022-10-17T17:22:37;14.30;;;2.55;;
30036;SDS011;36325;51.512;-0.382;2022-10-17T17:25:04;12.00;;;2.50;;
30036;SDS011;36325;51.512;-0.382;2022-10-17T17:27:31;12.07;;;4.07;;
30036;SDS011;36325;51.512;-0.382;2022-10-17T17:29:59;15.65;;;3.83;;